sensor_id;sensor_type;location;lat;lon;timestamp;pressure;altitude;pressure_sealevel;temperature;humidity
6859;BME280;3468;42.824;23.240;2022-11-15T00:00:29;-15637.63;;;2.24;100.00
6859;BME280;3468;42.824;23.240;2022-11-15T00:02:56;-15636.56;;;2.19;100.00
6859;BME280;3468;42.824;23.240;2022-11-15T00:05:24;-15636.69;;;2.20;100.00
6859;BME280;3468;42.824;23.240;2022-11-15T00:07:51;-15635.41;;;2.14;100.00
6859;BME280;3468;42.824;23.240;2022-11-15T00:10:18;-15634.47;;;2.10;100.00
6859;BME280;3468;42.824;23.240;2022-11-15T00:12:44;-15632.59;;;2.03;100.00
6859;BME280;3468;42.824;23.240;2022-11-15T00:15:11;-15633.06;;;2.04;100.00
6859;BME280;3468;42.824;23.240;2022-11-15T00:17:38;-15632.59;;;2.03;100.00
6859;BME280;3468;42.824;23.240;2022-11-15T00:20:05;-15631.88;;;2.00;100.00
6859;BME280;3468;42.824;23.240;2022-11-15T00:22:34;-15631.41;;;1.98;100.00
6859;BME280;3468;42.824;23.240;2022-11-15T00:25:01;-15632.34;;;2.02;100.00
6859;BME280;3468;42.824;23.240;2022-11-15T00:27:28;-15632.81;;;2.04;100.00
6859;BME280;3468;42.824;23.240;2022-11-15T00:29:55;-15633.06;;;2.04;100.00
6859;BME280;3468;42.824;23.240;2022-11-15T00:32:22;-15633.75;;;2.07;100.00
6859;BME280;3468;42.824;23.240;2022-11-15T00:34:48;-15633.53;;;2.06;100.00
6859;BME280;3468;42.824;23.240;2022-11-15T00:37:15;-15628.25;;;1.84;100.00
6859;BME280;3468;42.824;23.240;2022-11-15T00:39:44;-15647.13;;;2.64;100.00
6859;BME280;3468;42.824;23.240;2022-11-15T00:42:10;-15677.09;;;3.90;100.00
6859;BME280;3468;42.824;23.240;2022-11-15T00:44:37;-15696.41;;;4.72;100.00
6859;BME280;3468;42.824;23.240;2022-11-15T00:47:04;-15703.06;;;5.00;100.00
6859;BME280;3468;42.824;23.240;2022-11-15T00:49:31;-15716.97;;;5.59;100.00
6859;BME280;3468;42.824;23.240;2022-11-15T00:51:57;-15706.34;;;5.14;100.00
6859;BME280;3468;42.824;23.240;2022-11-15T00:54:24;-15702.13;;;4.96;99.21
6859;BME280;3468;42.824;23.240;2022-11-15T00:56:52;-15690.09;;;4.45;98.84
6859;BME280;3468;42.824;23.240;2022-11-15T00:59:19;-15678.97;;;3.98;99.79
6859;BME280;3468;42.824;23.240;2022-11-15T01:01:46;-15671.81;;;3.68;100.00
6859;BME280;3468;42.824;23.240;2022-11-15T01:04:13;-15665.38;;;3.41;100.00
6859;BME280;3468;42.824;23.240;2022-11-15T01:06:40;-15661.66;;;3.25;100.00
6859;BME280;3468;42.824;23.240;2022-11-15T01:09:06;-15657.31;;;3.07;100.00
6859;BME280;3468;42.824;23.240;2022-11-15T01:11:33;-15652.50;;;2.87;100.00
6859;BME280;3468;42.824;23.240;2022-11-15T01:14:01;-15645.94;;;2.59;100.00
6859;BME280;3468;42.824;23.240;2022-11-15T01:16:28;-15644.66;;;2.53;100.00
6859;BME280;3468;42.824;23.240;2022-11-15T01:18:55;-15641.25;;;2.39;100.00
6859;BME280;3468;42.824;23.240;2022-11-15T01:21:22;-15630.72;;;1.95;100.00
6859;BME280;3468;42.824;23.240;2022-11-15T01:23:52;-15634.94;;;2.12;100.00
6859;BME280;3468;42.824;23.240;2022-11-15T01:26:19;-15632.81;;;2.04;100.00
6859;BME280;3468;42.824;23.240;2022-11-15T01:28:46;-15631.66;;;1.99;100.00
6859;BME280;3468;42.824;23.240;2022-11-15T01:31:16;-15630.59;;;1.94;100.00
6859;BME280;3468;42.824;23.240;2022-11-15T01:33:43;-15626.03;;;1.75;100.00
6859;BME280;3468;42.824;23.240;2022-11-15T01:36:12;-15629.31;;;1.89;100.00
6859;BME280;3468;42.824;23.240;2022-11-15T01:38:39;-15628.03;;;1.83;100.00
6859;BME280;3468;42.824;23.240;2022-11-15T01:41:06;-15628.13;;;1.84;100.00
6859;BME280;3468;42.824;23.240;2022-11-15T01:43:34;-15628.59;;;1.86;100.00
6859;BME280;3468;42.824;23.240;2022-11-15T01:46:05;-15628.97;;;1.87;100.00
6859;BME280;3468;42.824;23.240;2022-11-15T01:48:35;-15629.78;;;1.91;100.00
6859;BME280;3468;42.824;23.240;2022-11-15T01:51:06;-15630.72;;;1.95;100.00
6859;BME280;3468;42.824;23.240;2022-11-15T01:53:34;-15629.91;;;1.91;100.00
6859;BME280;3468;42.824;23.240;2022-11-15T01:56:04;-15626.03;;;1.75;100.00
6859;BME280;3468;42.824;23.240;2022-11-15T01:58:32;-15621.34;;;1.55;100.00
6859;BME280;3468;42.824;23.240;2022-11-15T02:00:59;-15631.06;;;1.96;100.00
6859;BME280;3468;42.824;23.240;2022-11-15T02:03:31;-15628.38;;;1.85;100.00
6859;BME280;3468;42.824;23.240;2022-11-15T02:06:02;-15630.47;;;1.94;100.00
6859;BME280;3468;42.824;23.240;2022-11-15T02:08:30;-15630.00;;;1.92;100.00
6859;BME280;3468;42.824;23.240;2022-11-15T02:10:56;-15628.72;;;1.86;100.00
6859;BME280;3468;42.824;23.240;2022-11-15T02:13:23;-15628.50;;;1.85;100.00
6859;BME280;3468;42.824;23.240;2022-11-15T02:15:58;-15625.78;;;1.74;100.00
6859;BME280;3468;42.824;23.240;2022-11-15T02:18:32;-15624.84;;;1.70;100.00
6859;BME280;3468;42.824;23.240;2022-11-15T02:21:14;-15623.69;;;1.65;100.00
6859;BME280;3468;42.824;23.240;2022-11-15T02:27:03;-15622.28;;;1.59;100.00
6859;BME280;3468;42.824;23.240;2022-11-15T02:29:47;-15619.94;;;1.49;100.00
6859;BME280;3468;42.824;23.240;2022-11-15T02:32:25;-15617.81;;;1.40;100.00
6859;BME280;3468;42.824;23.240;2022-11-15T02:35:01;-15617.34;;;1.38;100.00
6859;BME280;3468;42.824;23.240;2022-11-15T02:37:34;-15614.19;;;1.25;100.00
6859;BME280;3468;42.824;23.240;2022-11-15T02:40:07;-15613.84;;;1.23;100.00
6859;BME280;3468;42.824;23.240;2022-11-15T02:42:41;-15614.31;;;1.25;100.00
6859;BME280;3468;42.824;23.240;2022-11-15T02:45:31;-15615.47;;;1.30;100.00
6859;BME280;3468;42.824;23.240;2022-11-15T02:48:01;-15616.78;;;1.36;100.00
6859;BME280;3468;42.824;23.240;2022-11-15T02:50:29;-15611.25;;;1.13;100.00
6859;BME280;3468;42.824;23.240;2022-11-15T02:52:58;-15618.75;;;1.44;100.00
6859;BME280;3468;42.824;23.240;2022-11-15T02:55:27;-15617.34;;;1.38;100.00
6859;BME280;3468;42.824;23.240;2022-11-15T02:58:01;-15613.59;;;1.23;100.00
6859;BME280;3468;42.824;23.240;2022-11-15T03:00:34;-15615.72;;;1.31;100.00
6859;BME280;3468;42.824;23.240;2022-11-15T03:03:20;-15616.19;;;1.33;100.00
6859;BME280;3468;42.824;23.240;2022-11-15T03:06:00;-15617.81;;;1.40;100.00
6859;BME280;3468;42.824;23.240;2022-11-15T03:08:32;-15619.47;;;1.47;100.00
6859;BME280;3468;42.824;23.240;2022-11-15T03:11:03;-15622.03;;;1.58;100.00
6859;BME280;3468;42.824;23.240;2022-11-15T03:13:36;-15623.81;;;1.65;100.00
6859;BME280;3468;42.824;23.240;2022-11-15T03:16:10;-15626.25;;;1.76;100.00
6859;BME280;3468;42.824;23.240;2022-11-15T03:18:44;-15626.25;;;1.76;100.00
6859;BME280;3468;42.824;23.240;2022-11-15T03:21:14;-15627.56;;;1.81;100.00
6859;BME280;3468;42.824;23.240;2022-11-15T03:23:43;-15629.66;;;1.90;100.00
6859;BME280;3468;42.824;23.240;2022-11-15T03:26:13;-15631.41;;;1.98;100.00
6859;BME280;3468;42.824;23.240;2022-11-15T03:28:46;-15632.81;;;2.04;100.00
6859;BME280;3468;42.824;23.240;2022-11-15T03:31:16;-15633.53;;;2.06;100.00
6859;BME280;3468;42.824;23.240;2022-11-15T03:34:14;-15633.53;;;2.06;100.00
6859;BME280;3468;42.824;23.240;2022-11-15T03:36:43;-15634.22;;;2.09;100.00
6859;BME280;3468;42.824;23.240;2022-11-15T03:39:12;-15635.41;;;2.14;100.00
6859;BME280;3468;42.824;23.240;2022-11-15T03:41:45;-15636.56;;;2.19;100.00
6859;BME280;3468;42.824;23.240;2022-11-15T03:44:20;-15638.44;;;2.27;100.00
6859;BME280;3468;42.824;23.240;2022-11-15T03:46:56;-15636.94;;;2.21;100.00
6859;BME280;3468;42.824;23.240;2022-11-15T03:49:29;-15641.63;;;2.41;100.00
6859;BME280;3468;42.824;23.240;2022-11-15T03:51:58;-15641.25;;;2.39;100.00
6859;BME280;3468;42.824;23.240;2022-11-15T03:54:25;-15636.09;;;2.17;100.00
6859;BME280;3468;42.824;23.240;2022-11-15T03:56:52;-15636.81;;;2.20;100.00
6859;BME280;3468;42.824;23.240;2022-11-15T03:59:19;-15634.59;;;2.11;100.00
6859;BME280;3468;42.824;23.240;2022-11-15T04:01:46;-15633.53;;;2.06;100.00
6859;BME280;3468;42.824;23.240;2022-11-15T04:04:12;-15634.69;;;2.11;100.00
6859;BME280;3468;42.824;23.240;2022-11-15T04:06:40;-15634.69;;;2.11;100.00
6859;BME280;3468;42.824;23.240;2022-11-15T04:09:07;-15634.22;;;2.09;100.00
6859;BME280;3468;42.824;23.240;2022-11-15T04:11:34;-15633.53;;;2.06;100.00
6859;BME280;3468;42.824;23.240;2022-11-15T04:14:01;-15629.19;;;1.88;100.00
6859;BME280;3468;42.824;23.240;2022-11-15T04:16:27;-15628.59;;;1.86;100.00
6859;BME280;3468;42.824;23.240;2022-11-15T04:18:54;-15627.09;;;1.79;100.00
6859;BME280;3468;42.824;23.240;2022-11-15T04:21:35;-15634.00;;;2.08;100.00
6859;BME280;3468;42.824;23.240;2022-11-15T04:24:21;-15631.53;;;1.98;100.00
6859;BME280;3468;42.824;23.240;2022-11-15T04:26:47;-15636.09;;;2.17;100.00
6859;BME280;3468;42.824;23.240;2022-11-15T04:29:14;-15632.34;;;2.02;100.00
6859;BME280;3468;42.824;23.240;2022-11-15T04:31:59;-15633.06;;;2.04;100.00
6859;BME280;3468;42.824;23.240;2022-11-15T04:34:26;-15634.59;;;2.11;100.00
6859;BME280;3468;42.824;23.240;2022-11-15T04:36:53;-15634.94;;;2.12;100.00
6859;BME280;3468;42.824;23.240;2022-11-15T04:39:39;-15635.53;;;2.15;100.00
6859;BME280;3468;42.824;23.240;2022-11-15T04:42:07;-15636.69;;;2.20;100.00
6859;BME280;3468;42.824;23.240;2022-11-15T04:44:34;-15638.22;;;2.26;100.00
6859;BME280;3468;42.824;23.240;2022-11-15T04:47:00;-15638.91;;;2.29;100.00
6859;BME280;3468;42.824;23.240;2022-11-15T04:49:27;-15641.03;;;2.38;100.00
6859;BME280;3468;42.824;23.240;2022-11-15T04:51:54;-15643.38;;;2.48;100.00
6859;BME280;3468;42.824;23.240;2022-11-15T04:54:21;-15640.09;;;2.34;100.00
6859;BME280;3468;42.824;23.240;2022-11-15T04:56:49;-15645.47;;;2.57;100.00
6859;BME280;3468;42.824;23.240;2022-11-15T04:59:15;-15646.19;;;2.60;100.00
6859;BME280;3468;42.824;23.240;2022-11-15T05:01:42;-15644.19;;;2.51;100.00
6859;BME280;3468;42.824;23.240;2022-11-15T05:04:09;-15640.78;;;2.37;100.00
6859;BME280;3468;42.824;23.240;2022-11-15T05:06:51;-15648.41;;;2.69;100.00
6859;BME280;3468;42.824;23.240;2022-11-15T05:09:19;-15645.00;;;2.55;100.00
6859;BME280;3468;42.824;23.240;2022-11-15T05:11:46;-15651.22;;;2.81;100.00
6859;BME280;3468;42.824;23.240;2022-11-15T05:14:14;-15648.88;;;2.71;100.00
6859;BME280;3468;42.824;23.240;2022-11-15T05:16:41;-15649.94;;;2.76;100.00
6859;BME280;3468;42.824;23.240;2022-11-15T05:19:08;-15655.56;;;2.99;100.00
6859;BME280;3468;42.824;23.240;2022-11-15T05:21:35;-15653.44;;;2.90;100.00
6859;BME280;3468;42.824;23.240;2022-11-15T05:24:02;-15658.94;;;3.14;100.00
6859;BME280;3468;42.824;23.240;2022-11-15T05:26:30;-15660.13;;;3.19;100.00
6859;BME280;3468;42.824;23.240;2022-11-15T05:28:58;-15660.25;;;3.19;100.00
6859;BME280;3468;42.824;23.240;2022-11-15T05:31:26;-15662.22;;;3.28;100.00
6859;BME280;3468;42.824;23.240;2022-11-15T05:33:55;-15665.16;;;3.40;100.00
6859;BME280;3468;42.824;23.240;2022-11-15T05:36:29;-15666.91;;;3.47;100.00
6859;BME280;3468;42.824;23.240;2022-11-15T05:38:58;-15667.97;;;3.52;100.00
6859;BME280;3468;42.824;23.240;2022-11-15T05:41:29;-15667.16;;;3.48;100.00
6859;BME280;3468;42.824;23.240;2022-11-15T05:43:57;-15668.19;;;3.53;100.00
6859;BME280;3468;42.824;23.240;2022-11-15T05:46:26;-15669.47;;;3.58;100.00
6859;BME280;3468;42.824;23.240;2022-11-15T05:48:53;-15662.00;;;3.27;100.00
6859;BME280;3468;42.824;23.240;2022-11-15T05:51:22;-15670.88;;;3.64;100.00
6859;BME280;3468;42.824;23.240;2022-11-15T05:53:49;-15663.97;;;3.35;100.00
6859;BME280;3468;42.824;23.240;2022-11-15T05:56:17;-15667.97;;;3.52;100.00
6859;BME280;3468;42.824;23.240;2022-11-15T05:58:44;-15669.59;;;3.59;100.00
6859;BME280;3468;42.824;23.240;2022-11-15T06:01:11;-15672.19;;;3.69;100.00
6859;BME280;3468;42.824;23.240;2022-11-15T06:03:39;-15673.00;;;3.73;100.00
6859;BME280;3468;42.824;23.240;2022-11-15T06:06:06;-15675.00;;;3.81;100.00
6859;BME280;3468;42.824;23.240;2022-11-15T06:08:33;-15675.69;;;3.84;100.00
6859;BME280;3468;42.824;23.240;2022-11-15T06:11:03;-15675.69;;;3.84;100.00
6859;BME280;3468;42.824;23.240;2022-11-15T06:13:30;-15675.34;;;3.83;100.00
6859;BME280;3468;42.824;23.240;2022-11-15T06:15:57;-15673.22;;;3.74;100.00
6859;BME280;3468;42.824;23.240;2022-11-15T06:18:24;-15672.41;;;3.70;100.00
6859;BME280;3468;42.824;23.240;2022-11-15T06:20:52;-15671.59;;;3.67;100.00
6859;BME280;3468;42.824;23.240;2022-11-15T06:23:19;-15672.41;;;3.70;100.00
6859;BME280;3468;42.824;23.240;2022-11-15T06:25:46;-15668.19;;;3.53;100.00
6859;BME280;3468;42.824;23.240;2022-11-15T06:28:13;-15674.53;;;3.79;100.00
6859;BME280;3468;42.824;23.240;2022-11-15T06:30:39;-15674.75;;;3.80;100.00
6859;BME280;3468;42.824;23.240;2022-11-15T06:33:06;-15676.38;;;3.87;100.00
6859;BME280;3468;42.824;23.240;2022-11-15T06:35:35;-15678.03;;;3.94;100.00
6859;BME280;3468;42.824;23.240;2022-11-15T06:38:05;-15679.09;;;3.99;100.00
6859;BME280;3468;42.824;23.240;2022-11-15T06:40:33;-15681.31;;;4.08;100.00
6859;BME280;3468;42.824;23.240;2022-11-15T06:43:01;-15681.66;;;4.10;100.00
6859;BME280;3468;42.824;23.240;2022-11-15T06:45:28;-15680.84;;;4.06;100.00
6859;BME280;3468;42.824;23.240;2022-11-15T06:47:55;-15681.31;;;4.08;100.00
6859;BME280;3468;42.824;23.240;2022-11-15T06:50:22;-15679.91;;;4.02;100.00
6859;BME280;3468;42.824;23.240;2022-11-15T06:52:48;-15677.22;;;3.91;100.00
6859;BME280;3468;42.824;23.240;2022-11-15T06:55:16;-15673.47;;;3.75;100.00
6859;BME280;3468;42.824;23.240;2022-11-15T06:57:47;-15681.41;;;4.09;100.00
6859;BME280;3468;42.824;23.240;2022-11-15T07:00:15;-15682.81;;;4.14;100.00
6859;BME280;3468;42.824;23.240;2022-11-15T07:02:42;-15681.41;;;4.09;100.00
6859;BME280;3468;42.824;23.240;2022-11-15T07:05:09;-15682.00;;;4.11;100.00
6859;BME280;3468;42.824;23.240;2022-11-15T07:07:36;-15684.34;;;4.21;100.00
6859;BME280;3468;42.824;23.240;2022-11-15T07:10:04;-15685.28;;;4.25;100.00
6859;BME280;3468;42.824;23.240;2022-11-15T07:12:32;-15681.53;;;4.09;100.00
6859;BME280;3468;42.824;23.240;2022-11-15T07:14:59;-15687.38;;;4.34;100.00
6859;BME280;3468;42.824;23.240;2022-11-15T07:17:25;-15685.88;;;4.27;100.00
6859;BME280;3468;42.824;23.240;2022-11-15T07:19:52;-15687.97;;;4.36;100.00
6859;BME280;3468;42.824;23.240;2022-11-15T07:22:19;-15688.09;;;4.37;100.00
6859;BME280;3468;42.824;23.240;2022-11-15T07:24:46;-15687.84;;;4.36;100.00
6859;BME280;3468;42.824;23.240;2022-11-15T07:27:13;-15691.38;;;4.51;100.00
6859;BME280;3468;42.824;23.240;2022-11-15T07:29:41;-15675.34;;;3.83;100.00
6859;BME280;3468;42.824;23.240;2022-11-15T07:32:08;-15696.50;;;4.72;100.00
6859;BME280;3468;42.824;23.240;2022-11-15T07:34:35;-15696.97;;;4.74;100.00
6859;BME280;3468;42.824;23.240;2022-11-15T07:37:02;-15698.16;;;4.79;100.00
6859;BME280;3468;42.824;23.240;2022-11-15T07:39:29;-15701.91;;;4.95;100.00
6859;BME280;3468;42.824;23.240;2022-11-15T07:41:55;-15704.00;;;5.04;100.00
6859;BME280;3468;42.824;23.240;2022-11-15T07:44:36;-15703.19;;;5.00;100.00
6859;BME280;3468;42.824;23.240;2022-11-15T07:47:04;-15703.19;;;5.00;100.00
6859;BME280;3468;42.824;23.240;2022-11-15T07:49:31;-15703.53;;;5.02;100.00
6859;BME280;3468;42.824;23.240;2022-11-15T07:51:58;-15707.75;;;5.20;100.00
6859;BME280;3468;42.824;23.240;2022-11-15T07:54:24;-15709.38;;;5.27;100.00
6859;BME280;3468;42.824;23.240;2022-11-15T07:56:51;-15711.13;;;5.34;100.00
6859;BME280;3468;42.824;23.240;2022-11-15T07:59:18;-15711.47;;;5.35;100.00
6859;BME280;3468;42.824;23.240;2022-11-15T08:01:45;-15708.56;;;5.23;100.00
6859;BME280;3468;42.824;23.240;2022-11-15T08:04:13;-15709.84;;;5.29;100.00
6859;BME280;3468;42.824;23.240;2022-11-15T08:06:40;-15707.97;;;5.21;100.00
6859;BME280;3468;42.824;23.240;2022-11-15T08:09:06;-15709.13;;;5.26;100.00
6859;BME280;3468;42.824;23.240;2022-11-15T08:11:33;-15709.38;;;5.27;100.00
6859;BME280;3468;42.824;23.240;2022-11-15T08:14:00;-15707.75;;;5.20;100.00
6859;BME280;3468;42.824;23.240;2022-11-15T08:16:26;-15708.91;;;5.25;100.00
6859;BME280;3468;42.824;23.240;2022-11-15T08:18:53;-15709.50;;;5.27;100.00
6859;BME280;3468;42.824;23.240;2022-11-15T08:21:22;-15709.50;;;5.27;100.00
6859;BME280;3468;42.824;23.240;2022-11-15T08:23:49;-15707.50;;;5.19;100.00
6859;BME280;3468;42.824;23.240;2022-11-15T08:26:15;-15705.75;;;5.11;100.00
6859;BME280;3468;42.824;23.240;2022-11-15T08:28:43;-15710.19;;;5.30;100.00
6859;BME280;3468;42.824;23.240;2022-11-15T08:31:13;-15702.47;;;4.97;100.00
6859;BME280;3468;42.824;23.240;2022-11-15T08:33:42;-15707.16;;;5.17;100.00
6859;BME280;3468;42.824;23.240;2022-11-15T08:36:12;-15710.53;;;5.32;100.00
6859;BME280;3468;42.824;23.240;2022-11-15T08:38:40;-15708.91;;;5.25;100.00
6859;BME280;3468;42.824;23.240;2022-11-15T08:41:12;-15710.91;;;5.33;100.00
6859;BME280;3468;42.824;23.240;2022-11-15T08:43:40;-15709.59;;;5.28;100.00
6859;BME280;3468;42.824;23.240;2022-11-15T08:46:10;-15707.38;;;5.18;100.00
6859;BME280;3468;42.824;23.240;2022-11-15T08:48:38;-15706.09;;;5.13;100.00
6859;BME280;3468;42.824;23.240;2022-11-15T08:51:05;-15706.09;;;5.13;100.00
6859;BME280;3468;42.824;23.240;2022-11-15T08:53:32;-15703.75;;;5.03;100.00
6859;BME280;3468;42.824;23.240;2022-11-15T08:56:01;-15703.53;;;5.02;100.00
6859;BME280;3468;42.824;23.240;2022-11-15T08:58:28;-15704.47;;;5.06;100.00
6859;BME280;3468;42.824;23.240;2022-11-15T09:00:55;-15704.94;;;5.08;100.00
6859;BME280;3468;42.824;23.240;2022-11-15T09:03:22;-15700.59;;;4.90;100.00
6859;BME280;3468;42.824;23.240;2022-11-15T09:05:48;-15700.84;;;4.91;100.00
6859;BME280;3468;42.824;23.240;2022-11-15T09:08:20;-15700.97;;;4.91;100.00
6859;BME280;3468;42.824;23.240;2022-11-15T09:10:47;-15703.19;;;5.00;100.00
6859;BME280;3468;42.824;23.240;2022-11-15T09:13:15;-15704.13;;;5.04;100.00
6859;BME280;3468;42.824;23.240;2022-11-15T09:15:42;-15705.63;;;5.11;100.00
6859;BME280;3468;42.824;23.240;2022-11-15T09:18:08;-15706.34;;;5.14;100.00
6859;BME280;3468;42.824;23.240;2022-11-15T09:20:35;-15708.31;;;5.22;100.00
6859;BME280;3468;42.824;23.240;2022-11-15T09:23:03;-15707.28;;;5.18;100.00
6859;BME280;3468;42.824;23.240;2022-11-15T09:25:30;-15708.78;;;5.24;100.00
6859;BME280;3468;42.824;23.240;2022-11-15T09:27:58;-15707.38;;;5.18;100.00
6859;BME280;3468;42.824;23.240;2022-11-15T09:30:26;-15710.78;;;5.32;100.00
6859;BME280;3468;42.824;23.240;2022-11-15T09:32:53;-15711.72;;;5.36;100.00
6859;BME280;3468;42.824;23.240;2022-11-15T09:35:19;-15711.47;;;5.35;100.00
6859;BME280;3468;42.824;23.240;2022-11-15T09:37:46;-15711.59;;;5.36;100.00
6859;BME280;3468;42.824;23.240;2022-11-15T09:40:14;-15712.31;;;5.39;100.00
6859;BME280;3468;42.824;23.240;2022-11-15T09:43:01;-15712.41;;;5.39;100.00
6859;BME280;3468;42.824;23.240;2022-11-15T09:45:36;-15713.22;;;5.43;100.00
6859;BME280;3468;42.824;23.240;2022-11-15T09:51:04;-15710.19;;;5.30;100.00
6859;BME280;3468;42.824;23.240;2022-11-15T09:53:40;-15711.47;;;5.35;100.00
6859;BME280;3468;42.824;23.240;2022-11-15T09:56:14;-15714.28;;;5.47;100.00
6859;BME280;3468;42.824;23.240;2022-11-15T09:58:48;-15716.38;;;5.56;100.00
6859;BME280;3468;42.824;23.240;2022-11-15T10:01:41;-15716.84;;;5.58;100.00
6859;BME280;3468;42.824;23.240;2022-11-15T10:04:11;-15716.28;;;5.56;100.00
6859;BME280;3468;42.824;23.240;2022-11-15T10:06:49;-15708.22;;;5.22;100.00
6859;BME280;3468;42.824;23.240;2022-11-15T10:09:24;-15716.63;;;5.57;100.00
6859;BME280;3468;42.824;23.240;2022-11-15T10:11:52;-15715.00;;;5.50;100.00
6859;BME280;3468;42.824;23.240;2022-11-15T10:14:20;-15713.81;;;5.45;100.00
6859;BME280;3468;42.824;23.240;2022-11-15T10:17:12;-15716.16;;;5.55;100.00
6859;BME280;3468;42.824;23.240;2022-11-15T10:19:52;-15715.00;;;5.50;100.00
6859;BME280;3468;42.824;23.240;2022-11-15T10:22:26;-15713.81;;;5.45;100.00
6859;BME280;3468;42.824;23.240;2022-11-15T10:25:06;-15716.97;;;5.59;100.00
6859;BME280;3468;42.824;23.240;2022-11-15T10:27:38;-15716.97;;;5.59;100.00
6859;BME280;3468;42.824;23.240;2022-11-15T10:30:10;-15716.38;;;5.56;100.00
6859;BME280;3468;42.824;23.240;2022-11-15T10:32:40;-15716.03;;;5.55;100.00
6859;BME280;3468;42.824;23.240;2022-11-15T10:35:20;-15714.06;;;5.46;100.00
6859;BME280;3468;42.824;23.240;2022-11-15T10:37:48;-15714.63;;;5.49;100.00
6859;BME280;3468;42.824;23.240;2022-11-15T10:40:17;-15713.59;;;5.44;100.00
6859;BME280;3468;42.824;23.240;2022-11-15T10:42:45;-15715.00;;;5.50;100.00
6859;BME280;3468;42.824;23.240;2022-11-15T10:45:26;-15716.16;;;5.55;100.00
6859;BME280;3468;42.824;23.240;2022-11-15T10:48:19;-15716.97;;;5.59;100.00
6859;BME280;3468;42.824;23.240;2022-11-15T10:50:47;-15704.94;;;5.08;100.00
6859;BME280;3468;42.824;23.240;2022-11-15T10:53:21;-15719.91;;;5.71;100.00
6859;BME280;3468;42.824;23.240;2022-11-15T10:55:51;-15718.72;;;5.66;100.00
6859;BME280;3468;42.824;23.240;2022-11-15T10:58:22;-15719.66;;;5.70;100.00
6859;BME280;3468;42.824;23.240;2022-11-15T11:00:54;-15725.03;;;5.93;100.00
6859;BME280;3468;42.824;23.240;2022-11-15T11:03:28;-15725.75;;;5.96;100.00
6859;BME280;3468;42.824;23.240;2022-11-15T11:06:07;-15726.69;;;6.00;100.00
6859;BME280;3468;42.824;23.240;2022-11-15T11:08:35;-15728.06;;;6.06;100.00
6859;BME280;3468;42.824;23.240;2022-11-15T11:11:03;-15728.56;;;6.08;100.00
6859;BME280;3468;42.824;23.240;2022-11-15T11:13:32;-15728.66;;;6.08;100.00
6859;BME280;3468;42.824;23.240;2022-11-15T11:16:14;-15730.19;;;6.15;100.00
6859;BME280;3468;42.824;23.240;2022-11-15T11:18:51;-15731.00;;;6.18;100.00
6859;BME280;3468;42.824;23.240;2022-11-15T11:21:26;-15731.94;;;6.22;100.00
6859;BME280;3468;42.824;23.240;2022-11-15T11:24:01;-15734.38;;;6.32;100.00
6859;BME280;3468;42.824;23.240;2022-11-15T11:26:40;-15735.31;;;6.36;100.00
6859;BME280;3468;42.824;23.240;2022-11-15T11:29:18;-15732.41;;;6.24;100.00
6859;BME280;3468;42.824;23.240;2022-11-15T11:31:52;-15735.78;;;6.38;100.00
6859;BME280;3468;42.824;23.240;2022-11-15T11:34:36;-15738.00;;;6.48;100.00
6859;BME280;3468;42.824;23.240;2022-11-15T11:37:12;-15740.00;;;6.56;100.00
6859;BME280;3468;42.824;23.240;2022-11-15T11:39:48;-15742.56;;;6.67;100.00
6859;BME280;3468;42.824;23.240;2022-11-15T11:42:29;-15737.44;;;6.45;100.00
6859;BME280;3468;42.824;23.240;2022-11-15T11:45:10;-15739.88;;;6.56;100.00
6859;BME280;3468;42.824;23.240;2022-11-15T11:47:47;-15739.53;;;6.54;100.00
6859;BME280;3468;42.824;23.240;2022-11-15T11:50:18;-15731.94;;;6.22;100.00
6859;BME280;3468;42.824;23.240;2022-11-15T11:52:57;-15740.59;;;6.58;100.00
6859;BME280;3468;42.824;23.240;2022-11-15T11:55:27;-15738.34;;;6.49;100.00
6859;BME280;3468;42.824;23.240;2022-11-15T11:58:03;-15742.91;;;6.68;100.00
6859;BME280;3468;42.824;23.240;2022-11-15T12:00:34;-15744.91;;;6.77;100.00
6859;BME280;3468;42.824;23.240;2022-11-15T12:03:09;-15746.66;;;6.84;100.00
6859;BME280;3468;42.824;23.240;2022-11-15T12:05:40;-15748.88;;;6.94;100.00
6859;BME280;3468;42.824;23.240;2022-11-15T12:08:25;-15747.34;;;6.87;100.00
6859;BME280;3468;42.824;23.240;2022-11-15T12:11:01;-15753.44;;;7.13;100.00
6859;BME280;3468;42.824;23.240;2022-11-15T12:13:30;-15750.03;;;6.98;100.00
6859;BME280;3468;42.824;23.240;2022-11-15T12:16:05;-15752.72;;;7.10;100.00
6859;BME280;3468;42.824;23.240;2022-11-15T12:18:35;-15753.19;;;7.12;100.00
6859;BME280;3468;42.824;23.240;2022-11-15T12:21:06;-15750.03;;;6.98;100.00
6859;BME280;3468;42.824;23.240;2022-11-15T12:23:39;-15756.56;;;7.26;100.00
6859;BME280;3468;42.824;23.240;2022-11-15T12:26:14;-15754.00;;;7.15;100.00
6859;BME280;3468;42.824;23.240;2022-11-15T12:28:47;-15751.66;;;7.05;100.00
6859;BME280;3468;42.824;23.240;2022-11-15T12:31:20;-15750.38;;;7.00;100.00
6859;BME280;3468;42.824;23.240;2022-11-15T12:33:49;-15752.25;;;7.08;100.00
6859;BME280;3468;42.824;23.240;2022-11-15T12:36:35;-15753.88;;;7.15;100.00
6859;BME280;3468;42.824;23.240;2022-11-15T12:39:04;-15753.78;;;7.14;100.00
6859;BME280;3468;42.824;23.240;2022-11-15T12:41:32;-15753.78;;;7.14;100.00
6859;BME280;3468;42.824;23.240;2022-11-15T12:44:00;-15755.16;;;7.20;100.00
6859;BME280;3468;42.824;23.240;2022-11-15T12:47:01;-15753.53;;;7.13;100.00
6859;BME280;3468;42.824;23.240;2022-11-15T12:49:45;-15755.06;;;7.20;100.00
6859;BME280;3468;42.824;23.240;2022-11-15T12:52:14;-15756.81;;;7.27;100.00
6859;BME280;3468;42.824;23.240;2022-11-15T12:57:52;-15758.69;;;7.35;100.00
6859;BME280;3468;42.824;23.240;2022-11-15T13:00:37;-15774.44;;;8.02;100.00
6859;BME280;3468;42.824;23.240;2022-11-15T13:03:28;-15828.88;;;10.32;100.00
6859;BME280;3468;42.824;23.240;2022-11-15T13:06:01;-15845.84;;;11.05;100.00
6859;BME280;3468;42.824;23.240;2022-11-15T13:08:47;-15839.56;;;10.78;100.00
6859;BME280;3468;42.824;23.240;2022-11-15T13:11:47;-15845.84;;;11.05;100.00
6859;BME280;3468;42.824;23.240;2022-11-15T13:14:40;-15855.63;;;11.46;100.00
6859;BME280;3468;42.824;23.240;2022-11-15T13:17:19;-15861.44;;;11.71;100.00
6859;BME280;3468;42.824;23.240;2022-11-15T13:19:53;-15856.56;;;11.50;96.61
6859;BME280;3468;42.824;23.240;2022-11-15T13:22:25;-15834.81;;;10.58;98.58
6859;BME280;3468;42.824;23.240;2022-11-15T13:25:22;-15829.44;;;10.35;100.00
6859;BME280;3468;42.824;23.240;2022-11-15T13:27:51;-15823.75;;;10.11;100.00